sensor_id;sensor_type;location;lat;lon;timestamp;P1;durP1;ratioP1;P2;durP2;ratioP2
3405;SDS011;10008;48.682;9.016;2023-06-24T00:02:09;9.80;;;9.10;;
3405;SDS011;10008;48.682;9.016;2023-06-24T00:04:35;9.63;;;8.93;;
3405;SDS011;10008;48.682;9.016;2023-06-24T00:07:00;9.93;;;9.20;;
3405;SDS011;10008;48.682;9.016;2023-06-24T00:09:27;9.40;;;8.70;;
3405;SDS011;10008;48.682;9.016;2023-06-24T00:11:54;9.70;;;9.00;;
3405;SDS011;10008;48.682;9.016;2023-06-24T00:14:20;9.90;;;9.20;;
3405;SDS011;10008;48.682;9.016;2023-06-24T00:16:47;9.80;;;9.10;;
3405;SDS011;10008;48.682;9.016;2023-06-24T00:19:19;9.90;;;9.20;;
3405;SDS011;10008;48.682;9.016;2023-06-24T00:21:49;9.50;;;8.80;;
3405;SDS011;10008;48.682;9.016;2023-06-24T00:24:21;9.50;;;8.80;;
3405;SDS011;10008;48.682;9.016;2023-06-24T00:26:53;9.03;;;8.33;;
3405;SDS011;10008;48.682;9.016;2023-06-24T00:29:20;9.60;;;8.90;;
3405;SDS011;10008;48.682;9.016;2023-06-24T00:31:46;9.27;;;8.57;;
3405;SDS011;10008;48.682;9.016;2023-06-24T00:34:12;10.00;;;9.30;;
3405;SDS011;10008;48.682;9.016;2023-06-24T00:36:38;9.93;;;9.23;;
3405;SDS011;10008;48.682;9.016;2023-06-24T00:39:04;9.90;;;9.20;;
3405;SDS011;10008;48.682;9.016;2023-06-24T00:41:30;9.50;;;8.80;;
3405;SDS011;10008;48.682;9.016;2023-06-24T00:43:57;9.80;;;9.10;;
3405;SDS011;10008;48.682;9.016;2023-06-24T00:46:24;9.80;;;9.10;;
3405;SDS011;10008;48.682;9.016;2023-06-24T00:48:59;9.50;;;8.80;;
3405;SDS011;10008;48.682;9.016;2023-06-24T00:51:28;10.20;;;9.40;;
3405;SDS011;10008;48.682;9.016;2023-06-24T00:53:59;12.40;;;11.50;;
3405;SDS011;10008;48.682;9.016;2023-06-24T00:56:27;9.90;;;9.20;;
3405;SDS011;10008;48.682;9.016;2023-06-24T00:58:57;10.83;;;10.03;;
3405;SDS011;10008;48.682;9.016;2023-06-24T01:01:28;10.30;;;9.50;;
3405;SDS011;10008;48.682;9.016;2023-06-24T01:03:58;10.30;;;9.50;;
3405;SDS011;10008;48.682;9.016;2023-06-24T01:06:26;9.80;;;9.10;;
3405;SDS011;10008;48.682;9.016;2023-06-24T01:08:55;9.40;;;8.70;;
3405;SDS011;10008;48.682;9.016;2023-06-24T01:11:25;9.50;;;8.80;;
3405;SDS011;10008;48.682;9.016;2023-06-24T01:13:52;9.40;;;8.70;;
3405;SDS011;10008;48.682;9.016;2023-06-24T01:16:33;9.30;;;8.60;;
3405;SDS011;10008;48.682;9.016;2023-06-24T01:22:23;9.50;;;8.80;;
3405;SDS011;10008;48.682;9.016;2023-06-24T01:28:20;9.10;;;8.40;;
3405;SDS011;10008;48.682;9.016;2023-06-24T01:34:30;8.97;;;8.30;;
3405;SDS011;10008;48.682;9.016;2023-06-24T01:37:10;8.40;;;7.80;;
3405;SDS011;10008;48.682;9.016;2023-06-24T01:42:38;8.60;;;8.00;;
3405;SDS011;10008;48.682;9.016;2023-06-24T01:45:07;8.50;;;7.90;;
3405;SDS011;10008;48.682;9.016;2023-06-24T01:47:36;8.70;;;8.10;;
3405;SDS011;10008;48.682;9.016;2023-06-24T01:50:06;9.00;;;8.30;;
3405;SDS011;10008;48.682;9.016;2023-06-24T01:52:35;9.20;;;8.50;;
3405;SDS011;10008;48.682;9.016;2023-06-24T01:55:02;9.70;;;9.00;;
3405;SDS011;10008;48.682;9.016;2023-06-24T01:57:30;9.90;;;9.10;;
3405;SDS011;10008;48.682;9.016;2023-06-24T01:59:58;9.40;;;8.70;;
3405;SDS011;10008;48.682;9.016;2023-06-24T02:02:26;9.40;;;8.70;;
3405;SDS011;10008;48.682;9.016;2023-06-24T02:04:54;9.77;;;9.07;;
3405;SDS011;10008;48.682;9.016;2023-06-24T02:07:20;9.30;;;8.60;;
3405;SDS011;10008;48.682;9.016;2023-06-24T02:09:47;9.10;;;8.40;;
3405;SDS011;10008;48.682;9.016;2023-06-24T02:12:14;9.10;;;8.40;;
3405;SDS011;10008;48.682;9.016;2023-06-24T02:14:40;9.00;;;8.30;;
3405;SDS011;10008;48.682;9.016;2023-06-24T02:17:08;9.00;;;8.30;;
3405;SDS011;10008;48.682;9.016;2023-06-24T02:19:36;10.17;;;9.37;;
3405;SDS011;10008;48.682;9.016;2023-06-24T02:22:03;9.10;;;8.40;;
3405;SDS011;10008;48.682;9.016;2023-06-24T02:24:34;8.80;;;8.10;;
3405;SDS011;10008;48.682;9.016;2023-06-24T02:27:01;8.80;;;8.10;;
3405;SDS011;10008;48.682;9.016;2023-06-24T02:29:28;11.67;;;10.57;;
3405;SDS011;10008;48.682;9.016;2023-06-24T02:31:56;10.10;;;9.30;;
3405;SDS011;10008;48.682;9.016;2023-06-24T02:34:24;9.03;;;8.33;;
3405;SDS011;10008;48.682;9.016;2023-06-24T02:36:50;8.20;;;7.60;;
3405;SDS011;10008;48.682;9.016;2023-06-24T02:39:16;8.40;;;7.80;;
3405;SDS011;10008;48.682;9.016;2023-06-24T02:41:43;8.53;;;7.93;;
3405;SDS011;10008;48.682;9.016;2023-06-24T02:44:09;8.90;;;8.20;;
3405;SDS011;10008;48.682;9.016;2023-06-24T02:46:35;9.17;;;8.47;;
3405;SDS011;10008;48.682;9.016;2023-06-24T02:49:01;8.60;;;8.00;;
3405;SDS011;10008;48.682;9.016;2023-06-24T02:51:28;9.20;;;8.50;;
3405;SDS011;10008;48.682;9.016;2023-06-24T02:53:55;8.20;;;7.60;;
3405;SDS011;10008;48.682;9.016;2023-06-24T02:56:35;8.77;;;8.10;;
3405;SDS011;10008;48.682;9.016;2023-06-24T02:59:10;8.67;;;8.07;;
3405;SDS011;10008;48.682;9.016;2023-06-24T03:01:36;8.40;;;7.80;;
3405;SDS011;10008;48.682;9.016;2023-06-24T03:04:05;9.20;;;8.50;;
3405;SDS011;10008;48.682;9.016;2023-06-24T03:06:32;8.90;;;8.30;;
3405;SDS011;10008;48.682;9.016;2023-06-24T03:09:02;9.00;;;8.30;;
3405;SDS011;10008;48.682;9.016;2023-06-24T03:11:29;9.10;;;8.40;;
3405;SDS011;10008;48.682;9.016;2023-06-24T03:13:57;9.20;;;8.50;;
3405;SDS011;10008;48.682;9.016;2023-06-24T03:16:33;8.80;;;8.20;;
3405;SDS011;10008;48.682;9.016;2023-06-24T03:19:04;8.83;;;8.23;;
3405;SDS011;10008;48.682;9.016;2023-06-24T03:21:31;8.70;;;8.10;;
3405;SDS011;10008;48.682;9.016;2023-06-24T03:24:06;9.20;;;8.50;;
3405;SDS011;10008;48.682;9.016;2023-06-24T03:26:35;9.50;;;8.80;;
3405;SDS011;10008;48.682;9.016;2023-06-24T03:29:04;9.70;;;9.00;;
3405;SDS011;10008;48.682;9.016;2023-06-24T03:31:32;9.80;;;9.10;;
3405;SDS011;10008;48.682;9.016;2023-06-24T03:33:59;9.60;;;8.90;;
3405;SDS011;10008;48.682;9.016;2023-06-24T03:36:26;9.80;;;9.10;;
3405;SDS011;10008;48.682;9.016;2023-06-24T03:38:52;9.63;;;8.93;;
3405;SDS011;10008;48.682;9.016;2023-06-24T03:41:18;9.87;;;9.17;;
3405;SDS011;10008;48.682;9.016;2023-06-24T03:43:44;9.40;;;8.70;;
3405;SDS011;10008;48.682;9.016;2023-06-24T03:46:11;9.40;;;8.70;;
3405;SDS011;10008;48.682;9.016;2023-06-24T03:48:37;9.47;;;8.77;;
3405;SDS011;10008;48.682;9.016;2023-06-24T03:51:03;9.30;;;8.60;;
3405;SDS011;10008;48.682;9.016;2023-06-24T03:53:29;9.50;;;8.80;;
3405;SDS011;10008;48.682;9.016;2023-06-24T03:55:55;9.17;;;8.47;;
3405;SDS011;10008;48.682;9.016;2023-06-24T03:58:21;9.20;;;8.50;;
3405;SDS011;10008;48.682;9.016;2023-06-24T04:00:47;9.40;;;8.70;;
3405;SDS011;10008;48.682;9.016;2023-06-24T04:03:17;9.30;;;8.60;;
3405;SDS011;10008;48.682;9.016;2023-06-24T04:05:43;9.97;;;9.20;;
3405;SDS011;10008;48.682;9.016;2023-06-24T04:08:09;10.40;;;9.60;;
3405;SDS011;10008;48.682;9.016;2023-06-24T04:10:37;9.40;;;8.70;;
3405;SDS011;10008;48.682;9.016;2023-06-24T04:13:03;9.40;;;8.70;;
3405;SDS011;10008;48.682;9.016;2023-06-24T04:15:30;9.40;;;8.70;;
3405;SDS011;10008;48.682;9.016;2023-06-24T04:17:55;8.87;;;8.17;;
3405;SDS011;10008;48.682;9.016;2023-06-24T04:20:21;8.30;;;7.70;;
3405;SDS011;10008;48.682;9.016;2023-06-24T04:22:47;9.00;;;8.30;;
3405;SDS011;10008;48.682;9.016;2023-06-24T04:25:12;9.20;;;8.50;;
3405;SDS011;10008;48.682;9.016;2023-06-24T04:27:38;9.10;;;8.40;;
3405;SDS011;10008;48.682;9.016;2023-06-24T04:30:06;9.30;;;8.60;;
3405;SDS011;10008;48.682;9.016;2023-06-24T04:32:32;9.20;;;8.50;;
3405;SDS011;10008;48.682;9.016;2023-06-24T04:34:59;9.13;;;8.43;;
3405;SDS011;10008;48.682;9.016;2023-06-24T04:37:26;9.07;;;8.37;;
3405;SDS011;10008;48.682;9.016;2023-06-24T04:39:52;9.40;;;8.70;;
3405;SDS011;10008;48.682;9.016;2023-06-24T04:42:18;9.20;;;8.50;;
3405;SDS011;10008;48.682;9.016;2023-06-24T04:44:44;9.30;;;8.60;;
3405;SDS011;10008;48.682;9.016;2023-06-24T04:47:09;9.40;;;8.70;;
3405;SDS011;10008;48.682;9.016;2023-06-24T04:49:35;9.30;;;8.60;;
3405;SDS011;10008;48.682;9.016;2023-06-24T04:52:01;9.60;;;8.90;;
3405;SDS011;10008;48.682;9.016;2023-06-24T04:54:28;9.10;;;8.40;;
3405;SDS011;10008;48.682;9.016;2023-06-24T04:56:53;9.53;;;8.83;;
3405;SDS011;10008;48.682;9.016;2023-06-24T04:59:23;9.80;;;9.00;;
3405;SDS011;10008;48.682;9.016;2023-06-24T05:01:49;10.07;;;9.27;;
3405;SDS011;10008;48.682;9.016;2023-06-24T05:04:15;10.20;;;9.40;;
3405;SDS011;10008;48.682;9.016;2023-06-24T05:06:41;10.10;;;9.30;;
3405;SDS011;10008;48.682;9.016;2023-06-24T05:09:06;9.90;;;9.10;;
3405;SDS011;10008;48.682;9.016;2023-06-24T05:11:32;10.00;;;9.20;;
3405;SDS011;10008;48.682;9.016;2023-06-24T05:13:58;10.00;;;9.20;;
3405;SDS011;10008;48.682;9.016;2023-06-24T05:16:23;10.15;;;9.30;;
3405;SDS011;10008;48.682;9.016;2023-06-24T05:18:49;10.20;;;9.40;;
3405;SDS011;10008;48.682;9.016;2023-06-24T05:21:15;10.50;;;9.67;;
3405;SDS011;10008;48.682;9.016;2023-06-24T05:23:41;10.27;;;9.47;;
3405;SDS011;10008;48.682;9.016;2023-06-24T05:26:07;10.40;;;9.60;;
3405;SDS011;10008;48.682;9.016;2023-06-24T05:28:32;10.27;;;9.47;;
3405;SDS011;10008;48.682;9.016;2023-06-24T05:30:58;10.50;;;9.70;;
3405;SDS011;10008;48.682;9.016;2023-06-24T05:33:24;10.60;;;9.80;;
3405;SDS011;10008;48.682;9.016;2023-06-24T05:35:50;10.60;;;9.80;;
3405;SDS011;10008;48.682;9.016;2023-06-24T05:38:16;10.50;;;9.70;;
3405;SDS011;10008;48.682;9.016;2023-06-24T05:40:42;10.70;;;9.90;;
3405;SDS011;10008;48.682;9.016;2023-06-24T05:43:07;10.70;;;9.90;;
3405;SDS011;10008;48.682;9.016;2023-06-24T05:45:33;11.00;;;10.10;;
3405;SDS011;10008;48.682;9.016;2023-06-24T05:47:59;11.00;;;10.10;;
3405;SDS011;10008;48.682;9.016;2023-06-24T05:50:25;10.87;;;10.00;;
3405;SDS011;10008;48.682;9.016;2023-06-24T05:52:50;11.00;;;10.10;;
3405;SDS011;10008;48.682;9.016;2023-06-24T05:55:16;11.20;;;10.30;;
3405;SDS011;10008;48.682;9.016;2023-06-24T05:57:42;11.50;;;10.60;;
3405;SDS011;10008;48.682;9.016;2023-06-24T06:00:08;10.90;;;10.00;;
3405;SDS011;10008;48.682;9.016;2023-06-24T06:02:41;11.57;;;10.67;;
3405;SDS011;10008;48.682;9.016;2023-06-24T06:05:07;11.10;;;10.20;;
3405;SDS011;10008;48.682;9.016;2023-06-24T06:07:33;11.20;;;10.30;;
3405;SDS011;10008;48.682;9.016;2023-06-24T06:10:00;11.30;;;10.40;;
3405;SDS011;10008;48.682;9.016;2023-06-24T06:12:25;11.37;;;10.47;;
3405;SDS011;10008;48.682;9.016;2023-06-24T06:14:51;11.30;;;10.40;;
3405;SDS011;10008;48.682;9.016;2023-06-24T06:17:17;11.50;;;10.60;;
3405;SDS011;10008;48.682;9.016;2023-06-24T06:19:43;11.50;;;10.60;;
3405;SDS011;10008;48.682;9.016;2023-06-24T06:22:11;11.50;;;10.60;;
3405;SDS011;10008;48.682;9.016;2023-06-24T06:24:38;11.80;;;10.80;;
3405;SDS011;10008;48.682;9.016;2023-06-24T06:27:04;11.90;;;10.90;;
3405;SDS011;10008;48.682;9.016;2023-06-24T06:29:34;12.57;;;11.47;;
3405;SDS011;10008;48.682;9.016;2023-06-24T06:32:00;12.30;;;11.30;;
3405;SDS011;10008;48.682;9.016;2023-06-24T06:34:25;12.50;;;11.50;;
3405;SDS011;10008;48.682;9.016;2023-06-24T06:36:51;12.90;;;11.80;;
3405;SDS011;10008;48.682;9.016;2023-06-24T06:39:17;12.37;;;11.37;;
3405;SDS011;10008;48.682;9.016;2023-06-24T06:41:42;13.50;;;12.40;;
3405;SDS011;10008;48.682;9.016;2023-06-24T06:44:14;13.10;;;12.00;;
3405;SDS011;10008;48.682;9.016;2023-06-24T06:46:40;12.50;;;11.50;;
3405;SDS011;10008;48.682;9.016;2023-06-24T06:49:06;13.00;;;11.90;;
3405;SDS011;10008;48.682;9.016;2023-06-24T06:51:31;12.27;;;11.27;;
3405;SDS011;10008;48.682;9.016;2023-06-24T06:53:57;14.00;;;12.57;;
3405;SDS011;10008;48.682;9.016;2023-06-24T06:56:23;12.43;;;11.40;;
3405;SDS011;10008;48.682;9.016;2023-06-24T06:58:50;13.00;;;11.90;;
3405;SDS011;10008;48.682;9.016;2023-06-24T07:01:17;12.77;;;11.67;;
3405;SDS011;10008;48.682;9.016;2023-06-24T07:03:43;13.50;;;12.30;;
3405;SDS011;10008;48.682;9.016;2023-06-24T07:06:09;13.33;;;12.20;;
3405;SDS011;10008;48.682;9.016;2023-06-24T07:08:35;13.20;;;12.10;;
3405;SDS011;10008;48.682;9.016;2023-06-24T07:11:01;13.30;;;12.20;;
3405;SDS011;10008;48.682;9.016;2023-06-24T07:13:27;13.60;;;12.50;;
3405;SDS011;10008;48.682;9.016;2023-06-24T07:15:53;13.80;;;12.70;;
3405;SDS011;10008;48.682;9.016;2023-06-24T07:18:19;13.33;;;12.23;;
3405;SDS011;10008;48.682;9.016;2023-06-24T07:20:45;13.23;;;12.13;;
3405;SDS011;10008;48.682;9.016;2023-06-24T07:23:11;13.80;;;12.70;;
3405;SDS011;10008;48.682;9.016;2023-06-24T07:25:36;13.47;;;12.37;;
3405;SDS011;10008;48.682;9.016;2023-06-24T07:28:02;14.27;;;13.07;;
3405;SDS011;10008;48.682;9.016;2023-06-24T07:30:28;14.00;;;12.90;;
3405;SDS011;10008;48.682;9.016;2023-06-24T07:32:54;13.90;;;12.80;;
3405;SDS011;10008;48.682;9.016;2023-06-24T07:35:20;14.53;;;13.33;;
3405;SDS011;10008;48.682;9.016;2023-06-24T07:37:46;13.67;;;12.57;;
3405;SDS011;10008;48.682;9.016;2023-06-24T07:40:11;13.10;;;12.00;;
3405;SDS011;10008;48.682;9.016;2023-06-24T07:42:37;13.30;;;12.20;;
3405;SDS011;10008;48.682;9.016;2023-06-24T07:45:03;13.40;;;12.30;;
3405;SDS011;10008;48.682;9.016;2023-06-24T07:47:29;13.87;;;12.67;;
3405;SDS011;10008;48.682;9.016;2023-06-24T07:49:57;13.83;;;12.73;;
3405;SDS011;10008;48.682;9.016;2023-06-24T07:52:23;13.20;;;12.10;;
3405;SDS011;10008;48.682;9.016;2023-06-24T07:54:48;13.60;;;12.50;;
3405;SDS011;10008;48.682;9.016;2023-06-24T07:57:14;13.53;;;12.43;;
3405;SDS011;10008;48.682;9.016;2023-06-24T07:59:40;14.40;;;13.20;;
3405;SDS011;10008;48.682;9.016;2023-06-24T08:02:06;14.10;;;12.90;;
3405;SDS011;10008;48.682;9.016;2023-06-24T08:04:32;14.00;;;12.80;;
3405;SDS011;10008;48.682;9.016;2023-06-24T08:06:58;13.97;;;12.77;;
3405;SDS011;10008;48.682;9.016;2023-06-24T08:09:23;13.67;;;12.50;;
3405;SDS011;10008;48.682;9.016;2023-06-24T08:11:49;13.40;;;12.30;;
3405;SDS011;10008;48.682;9.016;2023-06-24T08:14:15;13.67;;;12.57;;
3405;SDS011;10008;48.682;9.016;2023-06-24T08:16:41;13.60;;;12.50;;
3405;SDS011;10008;48.682;9.016;2023-06-24T08:19:06;13.50;;;12.40;;
3405;SDS011;10008;48.682;9.016;2023-06-24T08:21:32;13.43;;;12.33;;
3405;SDS011;10008;48.682;9.016;2023-06-24T08:23:59;13.40;;;12.30;;
3405;SDS011;10008;48.682;9.016;2023-06-24T08:26:25;13.57;;;12.47;;
3405;SDS011;10008;48.682;9.016;2023-06-24T08:28:51;13.83;;;12.73;;
3405;SDS011;10008;48.682;9.016;2023-06-24T08:31:16;13.63;;;12.53;;
3405;SDS011;10008;48.682;9.016;2023-06-24T08:33:45;13.60;;;12.50;;
3405;SDS011;10008;48.682;9.016;2023-06-24T08:36:11;13.50;;;12.40;;
3405;SDS011;10008;48.682;9.016;2023-06-24T08:38:36;13.77;;;12.57;;
3405;SDS011;10008;48.682;9.016;2023-06-24T08:41:02;13.80;;;12.70;;
3405;SDS011;10008;48.682;9.016;2023-06-24T08:43:28;14.50;;;13.30;;
3405;SDS011;10008;48.682;9.016;2023-06-24T08:45:54;14.30;;;13.10;;
3405;SDS011;10008;48.682;9.016;2023-06-24T08:48:20;13.70;;;12.60;;
3405;SDS011;10008;48.682;9.016;2023-06-24T08:50:51;13.40;;;12.30;;
3405;SDS011;10008;48.682;9.016;2023-06-24T08:53:20;13.20;;;12.10;;
3405;SDS011;10008;48.682;9.016;2023-06-24T08:55:46;14.00;;;12.80;;
3405;SDS011;10008;48.682;9.016;2023-06-24T08:58:14;13.97;;;12.73;;
3405;SDS011;10008;48.682;9.016;2023-06-24T09:00:40;14.00;;;12.90;;
3405;SDS011;10008;48.682;9.016;2023-06-24T09:03:08;13.20;;;12.10;;
3405;SDS011;10008;48.682;9.016;2023-06-24T09:05:33;13.20;;;12.10;;
3405;SDS011;10008;48.682;9.016;2023-06-24T09:07:59;13.70;;;12.60;;
3405;SDS011;10008;48.682;9.016;2023-06-24T09:10:35;15.17;;;13.80;;
3405;SDS011;10008;48.682;9.016;2023-06-24T09:13:02;13.60;;;12.50;;
3405;SDS011;10008;48.682;9.016;2023-06-24T09:15:30;14.87;;;13.60;;
3405;SDS011;10008;48.682;9.016;2023-06-24T09:17:57;13.70;;;12.60;;
3405;SDS011;10008;48.682;9.016;2023-06-24T09:20:23;14.27;;;13.07;;
3405;SDS011;10008;48.682;9.016;2023-06-24T09:22:49;15.20;;;13.80;;
3405;SDS011;10008;48.682;9.016;2023-06-24T09:25:18;13.50;;;12.40;;
3405;SDS011;10008;48.682;9.016;2023-06-24T09:27:48;14.20;;;12.97;;
3405;SDS011;10008;48.682;9.016;2023-06-24T09:30:20;15.70;;;14.40;;
3405;SDS011;10008;48.682;9.016;2023-06-24T09:32:50;13.40;;;12.30;;
3405;SDS011;10008;48.682;9.016;2023-06-24T09:35:24;13.30;;;12.20;;
3405;SDS011;10008;48.682;9.016;2023-06-24T09:37:55;13.40;;;12.30;;
3405;SDS011;10008;48.682;9.016;2023-06-24T09:40:22;13.60;;;12.50;;
3405;SDS011;10008;48.682;9.016;2023-06-24T09:42:52;12.90;;;11.90;;
3405;SDS011;10008;48.682;9.016;2023-06-24T09:45:21;13.70;;;12.60;;
3405;SDS011;10008;48.682;9.016;2023-06-24T09:47:55;13.67;;;12.57;;
3405;SDS011;10008;48.682;9.016;2023-06-24T09:50:21;13.30;;;12.20;;
3405;SDS011;10008;48.682;9.016;2023-06-24T09:52:48;14.50;;;13.30;;
3405;SDS011;10008;48.682;9.016;2023-06-24T09:55:15;13.47;;;12.30;;
3405;SDS011;10008;48.682;9.016;2023-06-24T09:57:44;14.37;;;13.17;;
3405;SDS011;10008;48.682;9.016;2023-06-24T10:00:12;13.40;;;12.30;;
3405;SDS011;10008;48.682;9.016;2023-06-24T10:02:40;12.93;;;11.93;;
3405;SDS011;10008;48.682;9.016;2023-06-24T10:05:06;13.23;;;12.13;;
3405;SDS011;10008;48.682;9.016;2023-06-24T10:07:33;12.90;;;11.80;;
3405;SDS011;10008;48.682;9.016;2023-06-24T10:10:02;13.20;;;12.10;;
3405;SDS011;10008;48.682;9.016;2023-06-24T10:12:28;13.60;;;12.30;;
3405;SDS011;10008;48.682;9.016;2023-06-24T10:14:54;13.27;;;12.17;;
3405;SDS011;10008;48.682;9.016;2023-06-24T10:17:20;12.90;;;11.80;;
3405;SDS011;10008;48.682;9.016;2023-06-24T10:19:46;13.00;;;12.00;;
3405;SDS011;10008;48.682;9.016;2023-06-24T10:22:12;13.30;;;12.30;;
3405;SDS011;10008;48.682;9.016;2023-06-24T10:24:38;12.87;;;11.87;;
3405;SDS011;10008;48.682;9.016;2023-06-24T10:27:20;12.93;;;11.93;;
3405;SDS011;10008;48.682;9.016;2023-06-24T10:29:47;12.60;;;11.60;;
3405;SDS011;10008;48.682;9.016;2023-06-24T10:32:15;13.00;;;12.00;;
3405;SDS011;10008;48.682;9.016;2023-06-24T10:34:42;12.83;;;11.83;;
3405;SDS011;10008;48.682;9.016;2023-06-24T10:47:34;13.10;;;12.00;;
3405;SDS011;10008;48.682;9.016;2023-06-24T10:50:04;15.47;;;14.27;;
3405;SDS011;10008;48.682;9.016;2023-06-24T10:52:31;13.10;;;12.00;;
3405;SDS011;10008;48.682;9.016;2023-06-24T10:54:58;12.73;;;11.70;;
3405;SDS011;10008;48.682;9.016;2023-06-24T10:57:24;13.60;;;12.50;;
3405;SDS011;10008;48.682;9.016;2023-06-24T10:59:54;12.90;;;11.80;;
3405;SDS011;10008;48.682;9.016;2023-06-24T11:02:25;13.10;;;12.00;;
3405;SDS011;10008;48.682;9.016;2023-06-24T11:04:55;12.73;;;11.67;;
3405;SDS011;10008;48.682;9.016;2023-06-24T11:07:23;13.10;;;12.00;;
3405;SDS011;10008;48.682;9.016;2023-06-24T11:09:54;15.87;;;14.57;;
3405;SDS011;10008;48.682;9.016;2023-06-24T11:12:27;13.43;;;12.33;;
3405;SDS011;10008;48.682;9.016;2023-06-24T11:14:56;13.40;;;12.30;;
3405;SDS011;10008;48.682;9.016;2023-06-24T11:17:23;14.20;;;13.00;;
3405;SDS011;10008;48.682;9.016;2023-06-24T11:19:49;13.80;;;12.70;;
3405;SDS011;10008;48.682;9.016;2023-06-24T11:22:17;12.50;;;11.50;;
3405;SDS011;10008;48.682;9.016;2023-06-24T11:24:42;12.60;;;11.60;;
3405;SDS011;10008;48.682;9.016;2023-06-24T11:27:08;13.70;;;12.60;;
3405;SDS011;10008;48.682;9.016;2023-06-24T11:29:34;12.60;;;11.60;;
3405;SDS011;10008;48.682;9.016;2023-06-24T11:32:00;14.20;;;13.00;;
3405;SDS011;10008;48.682;9.016;2023-06-24T11:34:27;13.23;;;12.20;;
3405;SDS011;10008;48.682;9.016;2023-06-24T11:36:54;13.40;;;12.30;;
3405;SDS011;10008;48.682;9.016;2023-06-24T11:39:20;13.03;;;11.93;;
3405;SDS011;10008;48.682;9.016;2023-06-24T11:41:47;13.03;;;11.97;;
3405;SDS011;10008;48.682;9.016;2023-06-24T11:44:14;12.97;;;11.87;;
3405;SDS011;10008;48.682;9.016;2023-06-24T11:46:39;12.90;;;11.80;;
3405;SDS011;10008;48.682;9.016;2023-06-24T11:49:06;13.10;;;12.00;;
3405;SDS011;10008;48.682;9.016;2023-06-24T11:51:33;12.90;;;11.87;;
3405;SDS011;10008;48.682;9.016;2023-06-24T11:54:02;13.40;;;12.30;;
3405;SDS011;10008;48.682;9.016;2023-06-24T11:56:41;13.00;;;12.00;;
3405;SDS011;10008;48.682;9.016;2023-06-24T11:59:21;13.20;;;12.10;;
3405;SDS011;10008;48.682;9.016;2023-06-24T12:01:56;13.30;;;12.20;;
3405;SDS011;10008;48.682;9.016;2023-06-24T12:04:32;15.17;;;13.77;;
3405;SDS011;10008;48.682;9.016;2023-06-24T12:06:59;13.20;;;12.10;;
3405;SDS011;10008;48.682;9.016;2023-06-24T12:09:25;13.20;;;12.10;;
3405;SDS011;10008;48.682;9.016;2023-06-24T12:11:51;13.20;;;12.10;;
3405;SDS011;10008;48.682;9.016;2023-06-24T12:14:17;13.63;;;12.53;;
3405;SDS011;10008;48.682;9.016;2023-06-24T12:16:43;13.37;;;12.27;;
3405;SDS011;10008;48.682;9.016;2023-06-24T12:19:09;13.30;;;12.20;;
3405;SDS011;10008;48.682;9.016;2023-06-24T12:21:35;13.17;;;12.10;;
3405;SDS011;10008;48.682;9.016;2023-06-24T12:24:01;13.27;;;12.20;;
3405;SDS011;10008;48.682;9.016;2023-06-24T12:26:27;13.87;;;12.73;;
3405;SDS011;10008;48.682;9.016;2023-06-24T12:28:56;13.27;;;12.17;;
3405;SDS011;10008;48.682;9.016;2023-06-24T12:31:25;13.30;;;12.20;;
3405;SDS011;10008;48.682;9.016;2023-06-24T12:33:51;13.30;;;12.20;;
3405;SDS011;10008;48.682;9.016;2023-06-24T12:36:18;13.10;;;12.00;;
3405;SDS011;10008;48.682;9.016;2023-06-24T12:38:44;13.30;;;12.20;;
3405;SDS011;10008;48.682;9.016;2023-06-24T12:41:09;13.33;;;12.23;;
3405;SDS011;10008;48.682;9.016;2023-06-24T12:43:35;13.10;;;12.00;;
3405;SDS011;10008;48.682;9.016;2023-06-24T12:46:01;13.87;;;12.77;;
3405;SDS011;10008;48.682;9.016;2023-06-24T12:48:27;13.17;;;12.17;;
3405;SDS011;10008;48.682;9.016;2023-06-24T12:50:52;13.60;;;12.50;;
3405;SDS011;10008;48.682;9.016;2023-06-24T12:53:19;14.40;;;13.20;;
3405;SDS011;10008;48.682;9.016;2023-06-24T12:55:45;13.50;;;12.40;;
3405;SDS011;10008;48.682;9.016;2023-06-24T12:58:12;13.07;;;12.07;;
3405;SDS011;10008;48.682;9.016;2023-06-24T13:00:40;12.70;;;11.70;;
3405;SDS011;10008;48.682;9.016;2023-06-24T13:03:05;12.80;;;11.80;;
3405;SDS011;10008;48.682;9.016;2023-06-24T13:05:31;12.77;;;11.77;;
3405;SDS011;10008;48.682;9.016;2023-06-24T13:07:57;13.50;;;12.40;;
3405;SDS011;10008;48.682;9.016;2023-06-24T13:10:23;13.40;;;12.30;;
3405;SDS011;10008;48.682;9.016;2023-06-24T13:12:49;13.50;;;12.40;;
3405;SDS011;10008;48.682;9.016;2023-06-24T13:15:14;13.00;;;12.00;;
3405;SDS011;10008;48.682;9.016;2023-06-24T13:17:40;12.63;;;11.63;;
3405;SDS011;10008;48.682;9.016;2023-06-24T13:20:07;12.83;;;11.83;;
3405;SDS011;10008;48.682;9.016;2023-06-24T13:22:33;12.73;;;11.73;;
3405;SDS011;10008;48.682;9.016;2023-06-24T13:24:59;12.80;;;11.80;;
3405;SDS011;10008;48.682;9.016;2023-06-24T13:27:25;13.97;;;12.83;;
3405;SDS011;10008;48.682;9.016;2023-06-24T13:29:51;13.00;;;11.90;;
3405;SDS011;10008;48.682;9.016;2023-06-24T13:32:17;13.00;;;11.90;;
3405;SDS011;10008;48.682;9.016;2023-06-24T13:34:42;13.90;;;12.70;;
3405;SDS011;10008;48.682;9.016;2023-06-24T13:37:08;13.00;;;12.00;;
3405;SDS011;10008;48.682;9.016;2023-06-24T13:39:34;12.90;;;11.90;;
3405;SDS011;10008;48.682;9.016;2023-06-24T13:42:00;13.00;;;12.00;;
3405;SDS011;10008;48.682;9.016;2023-06-24T13:44:26;12.90;;;11.90;;
3405;SDS011;10008;48.682;9.016;2023-06-24T13:46:51;13.47;;;12.37;;
3405;SDS011;10008;48.682;9.016;2023-06-24T13:49:18;12.90;;;11.90;;
3405;SDS011;10008;48.682;9.016;2023-06-24T13:51:44;12.80;;;11.80;;
3405;SDS011;10008;48.682;9.016;2023-06-24T13:54:10;13.03;;;11.93;;
3405;SDS011;10008;48.682;9.016;2023-06-24T13:56:36;13.10;;;12.10;;
3405;SDS011;10008;48.682;9.016;2023-06-24T13:59:02;13.60;;;12.50;;
3405;SDS011;10008;48.682;9.016;2023-06-24T14:01:28;13.30;;;12.20;;
3405;SDS011;10008;48.682;9.016;2023-06-24T14:03:54;13.17;;;12.07;;
3405;SDS011;10008;48.682;9.016;2023-06-24T14:06:21;13.10;;;12.00;;
3405;SDS011;10008;48.682;9.016;2023-06-24T14:08:48;14.33;;;13.13;;
3405;SDS011;10008;48.682;9.016;2023-06-24T14:11:15;13.20;;;12.10;;
3405;SDS011;10008;48.682;9.016;2023-06-24T14:13:41;13.10;;;12.00;;
3405;SDS011;10008;48.682;9.016;2023-06-24T14:16:08;13.40;;;12.30;;
3405;SDS011;10008;48.682;9.016;2023-06-24T14:18:35;13.43;;;12.33;;
3405;SDS011;10008;48.682;9.016;2023-06-24T14:21:01;13.30;;;12.20;;
3405;SDS011;10008;48.682;9.016;2023-06-24T14:23:28;13.30;;;12.20;;
3405;SDS011;10008;48.682;9.016;2023-06-24T14:25:55;13.47;;;12.37;;
3405;SDS011;10008;48.682;9.016;2023-06-24T14:28:21;13.80;;;12.70;;
3405;SDS011;10008;48.682;9.016;2023-06-24T14:30:47;13.80;;;12.70;;
3405;SDS011;10008;48.682;9.016;2023-06-24T14:33:14;14.07;;;12.93;;
3405;SDS011;10008;48.682;9.016;2023-06-24T14:35:40;13.70;;;12.60;;
3405;SDS011;10008;48.682;9.016;2023-06-24T14:38:06;13.40;;;12.30;;
3405;SDS011;10008;48.682;9.016;2023-06-24T14:40:32;13.40;;;12.30;;
3405;SDS011;10008;48.682;9.016;2023-06-24T14:42:58;13.50;;;12.40;;
3405;SDS011;10008;48.682;9.016;2023-06-24T14:45:25;13.17;;;12.07;;
3405;SDS011;10008;48.682;9.016;2023-06-24T14:47:51;13.53;;;12.43;;
3405;SDS011;10008;48.682;9.016;2023-06-24T14:50:17;13.40;;;12.30;;
3405;SDS011;10008;48.682;9.016;2023-06-24T14:52:43;13.30;;;12.20;;
3405;SDS011;10008;48.682;9.016;2023-06-24T14:55:09;13.17;;;12.07;;
3405;SDS011;10008;48.682;9.016;2023-06-24T14:57:35;13.10;;;12.00;;
3405;SDS011;10008;48.682;9.016;2023-06-24T15:00:01;15.57;;;14.07;;
3405;SDS011;10008;48.682;9.016;2023-06-24T15:02:31;13.07;;;12.00;;
3405;SDS011;10008;48.682;9.016;2023-06-24T15:04:57;13.73;;;12.53;;
3405;SDS011;10008;48.682;9.016;2023-06-24T15:07:23;13.20;;;12.10;;